Terminal Aerodrome Forecast
Issued by NWS Upton, NY

Home | Current Version | Previous Version | Text Only | Print | Product List | Glossary On
Versions: 1 2 3 4 5 6 7 8 9 10 11 12 13 14 15 16 17 18 19 20 21 22 23 24 25 26 27 28 29 30
000
FTUS41 KOKX 262350
TAFBDR
TAF
KBDR 262350Z 2700/2724 21004KT P6SM SCT250
     FM270400 VRB04KT P6SM SCT150 SCT250
     FM270800 VRB03KT 5SM BR SCT090 BKN120
     FM271000 VRB04KT 5SM HZ BKN080
     FM271300 VRB04KT 6SM HZ BKN080
     FM271500 20008KT P6SM SCT060 SCT100
     FM272000 21010KT 6SM HZ SCT100 SCT250=

USA.gov is the U.S. government's official web portal to all federal, state and local government web resources and services.